Time;durP1;ratioP1;P1;durP2;ratioP2;P2;SDS_P1;SDS_P2;PMS_P1;PMS_P2;Temp;Humidity;BMP_temperature;BMP_pressure;BME280_temperature;BME280_humidity;BME280_pressure;Samples;Min_cycle;Max_cycle;Signal;HPM_P1;HPM_P2
2022/12/27 00:01:44;;;;;;;2.22;1.48;;;6.10;99.90;;;;;;20182215;29;20052;-62
2022/12/27 00:11:46;;;;;;;2.03;0.80;;;6.40;99.90;;;;;;20181649;29;20057;-62
2022/12/27 00:21:47;;;;;;;4.07;1.08;;;6.60;99.90;;;;;;20164721;29;20045;-62
2022/12/27 00:31:50;;;;;;;2.75;1.67;;;6.70;99.90;;;;;;20165063;29;20049;-62
2022/12/27 00:41:52;;;;;;;2.05;1.13;;;6.50;99.90;;;;;;20181462;29;20041;-61
2022/12/27 00:51:53;;;;;;;5.22;1.23;;;6.20;99.90;;;;;;20180988;29;20073;-62
2022/12/27 01:01:55;;;;;;;3.67;1.42;;;6.20;99.90;;;;;;20176875;29;20064;-63
2022/12/27 01:11:57;;;;;;;4.05;2.22;;;6.40;99.90;;;;;;20172959;29;20108;-63
2022/12/27 01:21:59;;;;;;;4.38;1.70;;;6.10;99.90;;;;;;20176365;29;20129;-63
2022/12/27 01:32:00;;;;;;;1.63;1.30;;;5.80;99.90;;;;;;20192862;29;20410;-60
2022/12/27 01:52:25;;;;;;;1.57;0.87;;;6.00;99.90;;;;;;20191139;29;20498;-60
2022/12/27 02:02:27;;;;;;;3.60;1.10;;;6.10;99.90;;;;;;20191121;29;20056;-61
2022/12/27 02:12:28;;;;;;;1.55;0.68;;;6.30;99.90;;;;;;20189098;29;20037;-60
2022/12/27 02:33:35;;;;;;;1.92;0.90;;;6.30;99.90;;;;;;20188518;29;20097;-63
2022/12/27 02:54:32;;;;;;;1.40;0.60;;;6.00;99.90;;;;;;20171283;29;20052;-63
2022/12/27 03:05:21;;;;;;;1.42;0.50;;;5.50;99.90;;;;;;20185522;29;20044;-62
2022/12/27 03:15:56;;;;;;;2.67;0.90;;;5.40;99.90;;;;;;19927862;29;20072;-63
2022/12/27 03:26:00;;;;;;;6.05;3.10;;;5.40;99.90;;;;;;19944381;29;20106;-63
2022/12/27 03:46:33;;;;;;;5.97;3.05;;;4.70;99.90;;;;;;20163141;29;21005;-63
2022/12/27 03:56:36;;;;;;;4.78;2.72;;;4.70;99.90;;;;;;20183006;29;20388;-62
2022/12/27 04:06:38;;;;;;;4.72;2.40;;;3.90;99.90;;;;;;20182097;29;20388;-62
2022/12/27 04:37:19;;;;;;;3.88;1.95;;;3.30;99.90;;;;;;20181482;29;20053;-63
2022/12/27 04:57:41;;;;;;;3.57;1.80;;;2.60;99.90;;;;;;20192590;29;20093;-63
2022/12/27 05:18:03;;;;;;;3.92;2.25;;;2.40;99.90;;;;;;20194202;29;20413;-63
2022/12/27 05:28:07;;;;;;;3.67;2.13;;;2.30;99.90;;;;;;20175990;29;20464;-63
2022/12/27 05:38:09;;;;;;;6.97;3.13;;;2.20;99.90;;;;;;20192068;29;20041;-63
2022/12/27 05:48:11;;;;;;;5.43;2.70;;;2.20;99.90;;;;;;20192176;29;20049;-63
2022/12/27 05:58:12;;;;;;;7.00;2.90;;;2.10;99.90;;;;;;20189780;29;20048;-62
2022/12/27 06:08:14;;;;;;;6.53;2.30;;;2.00;99.90;;;;;;20189320;29;20436;-63
2022/12/27 06:18:15;;;;;;;4.03;2.17;;;2.10;99.90;;;;;;20189713;29;20037;-63
2022/12/27 06:28:17;;;;;;;3.83;2.05;;;2.00;99.90;;;;;;20188533;29;20068;-62
2022/12/27 06:38:19;;;;;;;6.32;2.17;;;1.80;99.90;;;;;;20171222;29;20057;-63
2022/12/27 06:48:21;;;;;;;4.22;2.00;;;1.80;99.90;;;;;;20187407;29;20096;-63
2022/12/27 06:58:23;;;;;;;4.35;2.00;;;2.00;99.90;;;;;;20186649;29;20069;-63
2022/12/27 07:08:25;;;;;;;4.68;1.77;;;2.10;99.90;;;;;;20185255;29;20077;-63
2022/12/27 07:18:26;;;;;;;3.85;1.92;;;2.00;99.90;;;;;;20185099;29;20056;-63
2022/12/27 07:28:30;;;;;;;4.18;1.90;;;2.20;99.90;;;;;;20184444;29;20053;-63
2022/12/27 07:38:32;;;;;;;4.00;1.55;;;2.50;99.90;;;;;;20179975;29;20105;-63
2022/12/27 07:48:34;;;;;;;2.90;1.70;;;3.10;99.90;;;;;;20183669;29;20041;-63
2022/12/27 07:58:43;;;;;;;3.72;1.60;;;3.30;99.90;;;;;;20182645;29;20086;-62
2022/12/27 08:08:46;;;;;;;3.37;1.80;;;3.70;99.90;;;;;;20165341;29;20412;-61
2022/12/27 08:18:48;;;;;;;3.08;1.20;;;4.20;99.90;;;;;;20188857;29;20059;-61
2022/12/27 08:28:51;;;;;;;1.98;1.40;;;4.90;99.90;;;;;;20196587;29;20049;-64
2022/12/27 08:38:54;;;;;;;2.95;1.75;;;5.70;99.90;;;;;;20196356;29;20357;-57
2022/12/27 08:48:55;;;;;;;3.28;2.03;;;6.40;99.90;;;;;;20196925;29;20053;-60
2022/12/27 08:58:57;;;;;;;4.43;2.03;;;6.90;99.90;;;;;;20195774;29;20499;-62
2022/12/27 09:09:00;;;;;;;4.07;1.90;;;7.30;99.90;;;;;;20176851;29;20113;-61
2022/12/27 09:19:02;;;;;;;3.05;1.92;;;7.60;99.90;;;;;;20194273;29;20053;-60
2022/12/27 09:29:05;;;;;;;2.28;1.17;;;7.90;99.90;;;;;;20193210;29;20045;-60
2022/12/27 09:39:09;;;;;;;0.95;0.32;;;8.20;99.90;;;;;;20193058;29;20065;-60
2022/12/27 09:49:16;;;;;;;0.57;0.35;;;8.70;99.90;;;;;;20192989;29;20089;-59
2022/12/27 09:59:36;;;;;;;3.22;1.70;;;9.30;99.90;;;;;;20191597;29;20097;-60
2022/12/27 10:10:06;;;;;;;1.50;1.13;;;9.90;99.90;;;;;;20190106;29;20037;-57
2022/12/27 10:20:45;;;;;;;1.38;0.90;;;10.10;99.90;;;;;;20169366;29;20040;-58
2022/12/27 10:30:46;;;;;;;1.30;0.80;;;10.40;99.90;;;;;;20172539;29;20044;-57
2022/12/27 10:40:58;;;;;;;1.10;0.50;;;10.90;99.90;;;;;;20188130;29;20045;-58
2022/12/27 10:51:10;;;;;;;0.30;0.10;;;11.30;99.90;;;;;;20188176;29;20056;-59
2022/12/27 11:01:27;;;;;;;2.10;0.50;;;10.70;95.80;;;;;;20184197;29;20109;-60
2022/12/27 11:11:28;;;;;;;0.40;0.20;;;10.60;98.60;;;;;;20185775;29;20407;-61
2022/12/27 11:21:36;;;;;;;0.38;0.20;;;10.50;95.20;;;;;;20168664;29;20632;-61
2022/12/27 11:31:47;;;;;;;1.77;0.70;;;10.70;94.50;;;;;;20185660;29;20133;-62
2022/12/27 11:41:53;;;;;;;1.95;0.50;;;11.30;98.70;;;;;;20185706;29;20057;-61
2022/12/27 11:52:19;;;;;;;0.30;0.13;;;11.30;95.80;;;;;;20166773;29;20057;-60
2022/12/27 12:02:33;;;;;;;0.50;0.40;;;10.90;93.20;;;;;;20183844;29;20041;-62
2022/12/27 12:12:37;;;;;;;0.57;0.30;;;11.40;93.10;;;;;;20183416;29;20049;-60
2022/12/27 12:22:44;;;;;;;0.20;0.10;;;11.10;91.40;;;;;;20166647;29;20037;-61
2022/12/27 12:33:34;;;;;;;1.27;0.30;;;11.00;88.60;;;;;;20166213;29;20591;-62
2022/12/27 12:43:55;;;;;;;0.75;0.50;;;11.00;92.50;;;;;;20165630;29;20049;-61
2022/12/27 12:54:09;;;;;;;0.30;0.20;;;10.80;93.90;;;;;;20181996;29;20097;-63
2022/12/27 13:04:38;;;;;;;0.70;0.50;;;10.60;90.90;;;;;;20167307;29;20045;-62
2022/12/27 13:14:46;;;;;;;0.15;0.10;;;10.40;93.20;;;;;;20194743;29;20045;-61
2022/12/27 13:25:12;;;;;;;0.22;0.10;;;10.00;87.40;;;;;;20194154;29;20056;-62
2022/12/27 13:35:35;;;;;;;0.15;0.00;;;9.40;85.30;;;;;;20176170;29;20396;-62
2022/12/27 13:46:07;;;;;;;0.52;0.10;;;9.10;83.60;;;;;;20192631;29;20052;-62
2022/12/27 13:56:23;;;;;;;0.30;0.10;;;9.00;84.30;;;;;;20174618;29;20041;-62
2022/12/27 14:06:51;;;;;;;0.20;0.10;;;8.80;86.00;;;;;;20189558;29;20048;-62
2022/12/27 14:17:14;;;;;;;0.00;0.00;;;8.60;85.90;;;;;;20189055;29;20488;-61
2022/12/27 14:27:53;;;;;;;0.20;0.10;;;8.50;86.20;;;;;;20188882;29;20044;-61
2022/12/27 14:38:25;;;;;;;0.00;0.00;;;8.30;85.30;;;;;;20184419;29;20372;-62
2022/12/27 14:48:36;;;;;;;0.00;0.00;;;8.10;84.20;;;;;;20171055;29;20109;-62
2022/12/27 14:58:54;;;;;;;0.20;0.00;;;7.90;85.20;;;;;;20186545;29;20556;-62
2022/12/27 15:09:31;;;;;;;0.00;0.00;;;7.40;86.80;;;;;;20185371;29;20185;-61
2022/12/27 15:20:15;;;;;;;0.15;0.00;;;6.70;87.80;;;;;;20168004;29;20568;-62
2022/12/27 15:30:25;;;;;;;0.00;0.00;;;6.10;88.90;;;;;;20156014;29;20113;-62
2022/12/27 15:40:33;;;;;;;0.10;0.00;;;5.70;90.60;;;;;;20183903;29;20049;-62
2022/12/27 15:51:03;;;;;;;0.57;0.10;;;5.30;91.70;;;;;;20183633;29;20077;-62
2022/12/27 16:01:26;;;;;;;0.10;0.10;;;4.90;92.40;;;;;;20172363;29;20045;-62
2022/12/27 16:11:59;;;;;;;0.00;0.00;;;4.60;93.50;;;;;;20182383;29;20045;-61
2022/12/27 16:22:01;;;;;;;0.10;0.00;;;4.40;92.60;;;;;;20181728;29;20105;-62
2022/12/27 16:32:15;;;;;;;0.10;0.00;;;4.30;93.80;;;;;;20181827;29;20049;-62
2022/12/27 16:42:25;;;;;;;0.08;0.00;;;3.80;94.50;;;;;;20191618;29;20049;-62
2022/12/27 16:53:01;;;;;;;0.00;0.00;;;3.50;96.00;;;;;;20196212;29;20045;-62
2022/12/27 17:03:17;;;;;;;0.50;0.10;;;3.10;95.50;;;;;;20194176;29;20105;-61
2022/12/27 17:13:45;;;;;;;0.00;0.00;;;3.30;94.90;;;;;;20194548;29;20444;-62
2022/12/27 17:23:48;;;;;;;0.10;0.00;;;3.40;95.30;;;;;;20190590;29;20044;-63
2022/12/27 17:34:07;;;;;;;0.28;0.10;;;3.20;95.70;;;;;;20176377;29;20053;-62
2022/12/27 17:44:38;;;;;;;0.65;0.20;;;2.90;96.70;;;;;;20191976;29;20045;-62
2022/12/27 18:05:05;;;;;;;0.13;0.10;;;2.30;98.70;;;;;;20190428;29;20429;-62
2022/12/27 18:15:22;;;;;;;0.30;0.10;;;1.90;99.90;;;;;;20190192;29;20274;-62
2022/12/27 18:25:26;;;;;;;0.30;0.10;;;1.60;99.90;;;;;;20189200;29;20452;-62
2022/12/27 18:35:29;;;;;;;1.65;0.10;;;1.60;99.90;;;;;;20171860;29;20045;-62
2022/12/27 18:45:32;;;;;;;0.10;0.10;;;1.70;99.90;;;;;;20187800;29;20461;-62
2022/12/27 18:55:35;;;;;;;0.32;0.20;;;1.80;99.90;;;;;;20166754;29;20045;-62
2022/12/27 19:05:37;;;;;;;0.22;0.10;;;1.80;99.90;;;;;;20169403;29;20129;-62
2022/12/27 19:15:40;;;;;;;0.57;0.10;;;2.10;99.90;;;;;;20186083;29;20427;-62
2022/12/27 19:25:56;;;;;;;0.10;0.10;;;2.40;99.90;;;;;;20184497;29;20049;-60
2022/12/27 19:35:59;;;;;;;0.20;0.10;;;2.50;99.90;;;;;;20184508;29;20057;-62
2022/12/27 19:46:01;;;;;;;0.25;0.10;;;2.30;99.90;;;;;;20168514;29;20049;-62
2022/12/27 19:56:04;;;;;;;0.20;0.10;;;2.10;99.90;;;;;;20182957;29;20499;-62
2022/12/27 20:06:07;;;;;;;1.95;0.15;;;1.80;99.90;;;;;;20183279;29;20049;-61
2022/12/27 20:16:10;;;;;;;0.30;0.10;;;1.60;99.90;;;;;;20175885;29;20112;-61
2022/12/27 20:26:16;;;;;;;0.57;0.30;;;1.40;99.90;;;;;;20198327;29;20037;-62
2022/12/27 20:36:18;;;;;;;0.80;0.30;;;1.20;99.90;;;;;;20181136;29;20568;-62
2022/12/27 20:46:20;;;;;;;0.82;0.30;;;1.30;99.90;;;;;;20180734;29;20053;-60
2022/12/27 20:56:23;;;;;;;0.63;0.40;;;1.60;99.90;;;;;;20196527;29;20045;-62
2022/12/27 21:06:28;;;;;;;2.38;1.10;;;1.60;99.90;;;;;;20179114;29;20049;-61
2022/12/27 21:16:33;;;;;;;1.17;0.40;;;1.30;99.90;;;;;;20178786;29;20183;-62
2022/12/27 21:26:36;;;;;;;0.80;0.40;;;0.80;99.90;;;;;;20193627;29;20048;-61
2022/12/27 21:36:38;;;;;;;1.05;0.50;;;0.70;99.90;;;;;;20177076;29;20113;-61
2022/12/27 21:46:41;;;;;;;1.55;0.40;;;0.60;99.90;;;;;;20176477;29;20049;-62
2022/12/27 21:56:43;;;;;;;0.70;0.38;;;0.60;99.90;;;;;;20192182;29;20499;-62
2022/12/27 22:06:45;;;;;;;0.60;0.30;;;0.70;99.90;;;;;;20174745;29;20056;-62
2022/12/27 22:16:47;;;;;;;0.80;0.32;;;0.70;99.90;;;;;;20191389;29;20049;-61
2022/12/27 22:26:48;;;;;;;0.90;0.40;;;0.60;99.90;;;;;;20190138;29;20117;-61
2022/12/27 22:36:51;;;;;;;1.48;0.80;;;0.60;99.90;;;;;;20171911;29;20105;-62
2022/12/27 22:46:53;;;;;;;0.63;0.35;;;0.60;99.90;;;;;;20172277;29;20053;-59
2022/12/27 22:56:55;;;;;;;2.42;1.00;;;0.40;99.90;;;;;;20184354;29;20077;-63
2022/12/27 23:07:00;;;;;;;5.35;1.98;;;0.40;99.90;;;;;;20186969;29;20407;-63
2022/12/27 23:17:02;;;;;;;4.75;1.48;;;0.40;99.90;;;;;;20186771;29;20049;-63
2022/12/27 23:27:04;;;;;;;9.15;4.60;;;0.40;99.90;;;;;;20185617;29;20455;-63
2022/12/27 23:37:05;;;;;;;7.07;3.53;;;0.20;99.90;;;;;;20168251;29;20045;-63
2022/12/27 23:47:07;;;;;;;3.92;1.92;;;0.10;99.90;;;;;;20168380;29;20057;-62
2022/12/27 23:57:09;;;;;;;4.28;2.20;;;0.00;99.90;;;;;;20184422;29;20611;-62
